createdAt,value
2018-03-15T00:00:46.534Z,76.50
2018-03-15T00:03:20.780Z,76.50
2018-03-15T00:05:49.142Z,75.90
2018-03-15T00:08:17.537Z,75.80
2018-03-15T00:10:46.566Z,75.10
2018-03-15T00:13:14.891Z,75.00
2018-03-15T00:15:43.128Z,75.20
2018-03-15T00:18:11.379Z,75.20
2018-03-15T00:20:40.494Z,75.50
2018-03-15T00:23:09.579Z,76.00
2018-03-15T00:25:37.929Z,75.90
2018-03-15T00:28:06.188Z,76.50
2018-03-15T00:30:34.468Z,76.20
2018-03-15T00:33:02.744Z,76.80
2018-03-15T00:35:31.109Z,77.30
2018-03-15T00:37:59.356Z,77.50
2018-03-15T00:40:27.620Z,77.80
2018-03-15T00:42:55.875Z,77.30
2018-03-15T00:45:24.941Z,78.00
2018-03-15T00:47:53.617Z,77.80
2018-03-15T00:50:21.879Z,77.60
2018-03-15T00:52:50.167Z,77.10
2018-03-15T00:55:19.986Z,78.50
2018-03-15T00:57:48.274Z,78.50
2018-03-15T01:00:16.618Z,78.20
2018-03-15T01:02:44.921Z,78.90
2018-03-15T01:05:13.195Z,78.30
2018-03-15T01:07:42.480Z,78.80
2018-03-15T01:10:10.882Z,78.70
2018-03-15T01:12:39.171Z,78.40
2018-03-15T01:15:07.481Z,79.50
2018-03-15T01:17:35.890Z,80.00
2018-03-15T01:20:04.175Z,79.60
2018-03-15T01:22:32.430Z,79.50
2018-03-15T01:25:00.688Z,79.90
2018-03-15T01:27:28.969Z,80.10
2018-03-15T01:29:57.306Z,80.20
2018-03-15T01:32:25.711Z,80.00
2018-03-15T01:34:54.030Z,80.50
2018-03-15T01:37:23.001Z,80.40
2018-03-15T01:39:51.292Z,79.90
2018-03-15T01:42:20.670Z,80.00
2018-03-15T01:44:48.950Z,80.10
2018-03-15T01:47:17.285Z,80.20
2018-03-15T01:49:45.549Z,80.20
2018-03-15T01:52:13.810Z,80.60
2018-03-15T01:54:42.086Z,80.30
2018-03-15T01:57:10.347Z,80.70
2018-03-15T01:59:38.620Z,80.80
2018-03-15T02:02:06.928Z,81.20
2018-03-15T02:04:35.172Z,82.10
2018-03-15T02:07:03.471Z,82.10
2018-03-15T02:09:31.736Z,82.60
2018-03-15T02:12:00.100Z,83.10
2018-03-15T02:14:28.362Z,83.00
2018-03-15T02:16:56.634Z,83.10
2018-03-15T02:19:24.904Z,83.10
2018-03-15T02:21:53.167Z,82.80
2018-03-15T02:24:22.211Z,83.00
2018-03-15T02:26:50.601Z,83.00
2018-03-15T02:29:18.862Z,83.10
2018-03-15T02:31:47.148Z,82.90
2018-03-15T02:34:15.521Z,83.20
2018-03-15T02:36:43.770Z,83.40
2018-03-15T02:39:12.038Z,83.60
2018-03-15T02:41:40.295Z,83.90
2018-03-15T02:44:08.581Z,84.20
2018-03-15T02:46:37.638Z,84.40
2018-03-15T02:49:05.935Z,84.30
2018-03-15T02:51:35.007Z,84.50
2018-03-15T02:54:03.264Z,84.50
2018-03-15T02:56:31.562Z,85.10
2018-03-15T02:58:59.814Z,85.00
2018-03-15T03:01:28.091Z,84.70
2018-03-15T03:03:56.365Z,85.10
2018-03-15T03:06:24.653Z,85.10
2018-03-15T03:08:52.913Z,85.40
2018-03-15T03:11:21.196Z,85.40
2018-03-15T03:13:49.473Z,85.00
2018-03-15T03:16:17.741Z,85.30
2018-03-15T03:18:46.000Z,85.00
2018-03-15T03:21:14.280Z,84.60
2018-03-15T03:23:42.520Z,84.40
2018-03-15T03:26:11.554Z,84.10
2018-03-15T03:28:39.823Z,84.10
2018-03-15T03:31:08.115Z,83.90
2018-03-15T03:33:36.433Z,84.20
2018-03-15T03:36:04.703Z,84.10
2018-03-15T03:38:32.965Z,84.00
2018-03-15T03:41:01.246Z,84.40
2018-03-15T03:43:29.505Z,85.10
2018-03-15T03:45:57.790Z,85.70
2018-03-15T03:48:26.100Z,85.90
2018-03-15T03:50:54.347Z,87.20
2018-03-15T03:53:22.608Z,86.40
2018-03-15T03:55:50.861Z,86.60
2018-03-15T03:58:19.119Z,87.20
2018-03-15T04:00:47.413Z,87.10
2018-03-15T04:03:15.745Z,86.70
2018-03-15T04:05:44.025Z,87.40
2018-03-15T04:08:12.263Z,86.20
2018-03-15T04:10:40.535Z,85.40
2018-03-15T04:13:08.808Z,84.80
2018-03-15T04:15:37.083Z,84.60
2018-03-15T04:18:05.348Z,84.50
2018-03-15T04:20:33.621Z,84.50
2018-03-15T04:23:01.881Z,84.80
2018-03-15T04:25:30.139Z,84.50
2018-03-15T04:27:58.433Z,84.60
2018-03-15T04:30:26.706Z,85.10
2018-03-15T04:32:54.983Z,84.70
2018-03-15T04:35:24.012Z,84.70
2018-03-15T04:37:52.275Z,84.70
2018-03-15T04:40:20.552Z,84.80
2018-03-15T04:42:48.817Z,85.80
2018-03-15T04:45:17.072Z,86.00
2018-03-15T04:47:45.346Z,86.00
2018-03-15T04:50:14.424Z,87.30
2018-03-15T04:52:42.736Z,87.30
2018-03-15T04:55:11.005Z,87.90
2018-03-15T04:57:40.059Z,87.10
2018-03-15T05:00:08.321Z,87.10
2018-03-15T05:02:36.593Z,87.50
2018-03-15T05:05:04.870Z,86.60
2018-03-15T05:07:33.124Z,86.10
2018-03-15T05:10:01.385Z,85.60
2018-03-15T05:12:29.642Z,85.20
2018-03-15T05:14:57.912Z,85.50
2018-03-15T05:17:26.195Z,85.30
2018-03-15T05:19:54.481Z,85.30
2018-03-15T05:22:23.504Z,85.50
2018-03-15T05:24:51.785Z,85.40
2018-03-15T05:27:20.043Z,85.40
2018-03-15T05:29:48.331Z,84.90
2018-03-15T05:32:16.617Z,84.90
2018-03-15T05:34:44.892Z,84.90
2018-03-15T05:37:13.500Z,84.80
2018-03-15T05:39:41.755Z,84.80
2018-03-15T05:42:10.044Z,84.80
2018-03-15T05:44:38.332Z,84.90
2018-03-15T05:47:06.595Z,84.80
2018-03-15T05:49:34.847Z,84.80
2018-03-15T05:52:03.122Z,84.50
2018-03-15T05:54:31.419Z,84.20
2018-03-15T05:56:59.713Z,83.60
2018-03-15T05:59:28.745Z,83.80
2018-03-15T06:01:57.026Z,84.40
2018-03-15T06:04:26.089Z,83.50
2018-03-15T06:06:54.376Z,83.40
2018-03-15T06:09:22.643Z,83.60
2018-03-15T06:11:50.964Z,82.70
2018-03-15T06:14:19.297Z,82.10
2018-03-15T06:16:47.531Z,81.50
2018-03-15T06:19:15.804Z,82.70
2018-03-15T06:21:44.069Z,81.80
2018-03-15T06:24:12.324Z,81.40
2018-03-15T06:26:41.419Z,80.60
2018-03-15T06:29:10.451Z,80.90
2018-03-15T06:31:38.737Z,80.80
2018-03-15T06:34:07.011Z,80.00
2018-03-15T06:36:35.253Z,81.90
2018-03-15T06:39:03.544Z,79.60
2018-03-15T06:41:31.901Z,79.10
2018-03-15T06:44:00.212Z,79.90
2018-03-15T06:46:28.584Z,79.70
2018-03-15T06:48:56.861Z,77.00
2018-03-15T06:51:25.131Z,77.90
2018-03-15T06:53:54.359Z,77.80
2018-03-15T06:56:22.638Z,78.10
2018-03-15T06:58:50.904Z,77.70
2018-03-15T07:01:19.209Z,76.60
2018-03-15T07:03:47.516Z,77.60
2018-03-15T07:06:16.558Z,78.10
2018-03-15T07:08:44.852Z,77.90
2018-03-15T07:11:13.135Z,77.30
2018-03-15T07:13:41.405Z,77.00
2018-03-15T07:16:09.650Z,77.10
2018-03-15T07:18:37.976Z,77.30
2018-03-15T07:21:07.059Z,76.00
2018-03-15T07:23:35.333Z,75.40
2018-03-15T07:26:03.592Z,75.10
2018-03-15T07:28:31.852Z,76.20
2018-03-15T07:31:00.112Z,76.30
2018-03-15T07:33:28.504Z,76.10
2018-03-15T07:35:56.790Z,75.70
2018-03-15T07:38:25.061Z,74.60
2018-03-15T07:40:53.350Z,75.40
2018-03-15T07:43:21.640Z,76.80
2018-03-15T07:45:49.880Z,75.00
2018-03-15T07:48:18.165Z,74.20
2018-03-15T07:50:46.433Z,73.30
2018-03-15T07:53:14.689Z,73.40
2018-03-15T07:55:42.944Z,73.70
2018-03-15T07:58:11.984Z,73.30
2018-03-15T08:00:41.004Z,73.30
2018-03-15T08:03:09.343Z,74.20
2018-03-15T08:05:37.616Z,73.00
2018-03-15T08:08:05.920Z,72.10
2018-03-15T08:10:34.236Z,70.60
2018-03-15T08:13:03.281Z,71.10
2018-03-15T08:15:31.553Z,71.10
2018-03-15T08:17:59.800Z,71.60
2018-03-15T08:20:28.316Z,71.10
2018-03-15T08:23:02.503Z,70.20
2018-03-15T08:25:35.348Z,69.60
2018-03-15T08:28:05.733Z,70.50
2018-03-15T08:30:34.022Z,69.80
2018-03-15T08:33:02.307Z,69.00
2018-03-15T08:35:32.425Z,70.30
2018-03-15T08:38:00.818Z,69.50
2018-03-15T08:40:30.965Z,68.50
2018-03-15T08:42:59.227Z,68.20
2018-03-15T08:45:27.692Z,67.90
2018-03-15T08:47:55.951Z,67.20
2018-03-15T08:50:24.283Z,66.60
2018-03-15T08:52:52.609Z,66.90
2018-03-15T08:55:20.896Z,66.30
2018-03-15T08:57:49.376Z,65.60
2018-03-15T09:00:18.449Z,64.10
2018-03-15T09:02:47.750Z,64.00
2018-03-15T09:05:16.035Z,63.60
2018-03-15T09:07:44.470Z,63.80
2018-03-15T09:10:12.821Z,63.00
2018-03-15T09:12:41.811Z,62.10
2018-03-15T09:15:10.117Z,62.10
2018-03-15T09:17:38.396Z,61.60
2018-03-15T09:20:07.423Z,61.60
2018-03-15T09:22:35.714Z,61.10
2018-03-15T09:25:03.956Z,61.60
2018-03-15T09:27:32.254Z,61.80
2018-03-15T09:30:00.551Z,61.60
2018-03-15T09:32:29.749Z,61.70
2018-03-15T09:34:58.006Z,61.70
2018-03-15T09:37:28.099Z,61.70
2018-03-15T09:39:56.396Z,61.10
2018-03-15T09:42:24.673Z,60.70
2018-03-15T09:44:52.956Z,60.50
2018-03-15T09:47:21.868Z,60.30
2018-03-15T09:49:50.341Z,60.20
2018-03-15T09:52:18.892Z,60.30
2018-03-15T09:54:47.338Z,59.70
2018-03-15T09:57:16.520Z,59.20
2018-03-15T09:59:44.808Z,59.00
2018-03-15T10:02:13.950Z,57.60
2018-03-15T10:04:43.229Z,57.60
2018-03-15T10:07:11.568Z,57.20
2018-03-15T10:09:40.120Z,58.10
2018-03-15T10:12:09.157Z,57.90
2018-03-15T10:14:37.432Z,58.00
2018-03-15T10:17:06.757Z,57.50
2018-03-15T10:19:35.069Z,57.50
2018-03-15T10:22:03.396Z,58.10
2018-03-15T10:24:31.770Z,58.10
2018-03-15T10:27:00.442Z,56.80
2018-03-15T10:29:29.887Z,57.30
2018-03-15T10:31:58.236Z,57.00
2018-03-15T10:34:30.274Z,57.30
2018-03-15T10:36:58.900Z,57.30
2018-03-15T10:39:27.180Z,56.30
2018-03-15T10:41:58.055Z,56.00
2018-03-15T10:44:27.143Z,55.50
2018-03-15T10:46:56.102Z,55.50
2018-03-15T10:49:25.057Z,56.20
2018-03-15T10:51:53.445Z,55.00
2018-03-15T10:54:22.424Z,55.20
2018-03-15T10:56:50.910Z,53.90
2018-03-15T10:59:19.224Z,54.60
2018-03-15T11:01:49.416Z,54.10
2018-03-15T11:04:17.989Z,54.50
2018-03-15T11:06:52.502Z,53.40
2018-03-15T11:09:23.668Z,53.90
2018-03-15T11:11:51.941Z,54.10
2018-03-15T11:14:20.234Z,55.10
2018-03-15T11:16:49.382Z,54.40
2018-03-15T11:19:17.701Z,54.20
2018-03-15T11:21:46.744Z,55.30
2018-03-15T11:24:15.157Z,54.60
2018-03-15T11:26:43.487Z,55.00
2018-03-15T11:29:11.751Z,55.30
2018-03-15T11:31:40.045Z,55.70
2018-03-15T11:34:08.553Z,55.20
2018-03-15T11:36:38.270Z,54.80
2018-03-15T11:39:06.601Z,54.70
2018-03-15T11:41:34.882Z,54.40
2018-03-15T11:44:03.375Z,53.30
2018-03-15T11:46:31.642Z,53.30
2018-03-15T11:48:59.922Z,52.60
2018-03-15T11:51:28.417Z,52.50
2018-03-15T11:53:56.848Z,52.60
2018-03-15T11:56:25.117Z,52.20
2018-03-15T11:58:53.479Z,51.20
2018-03-15T12:01:21.747Z,52.60
2018-03-15T12:03:50.059Z,51.60
2018-03-15T12:06:19.124Z,51.80
2018-03-15T12:08:47.407Z,51.80
2018-03-15T12:11:15.676Z,51.30
2018-03-15T12:13:44.011Z,51.40
2018-03-15T12:16:12.379Z,50.60
2018-03-15T12:18:41.413Z,50.00
2018-03-15T12:21:09.866Z,49.90
2018-03-15T12:23:38.956Z,52.80
2018-03-15T12:26:07.399Z,52.70
2018-03-15T12:28:35.761Z,56.10
2018-03-15T12:31:04.943Z,51.20
2018-03-15T12:33:34.246Z,49.80
2018-03-15T12:36:02.506Z,51.20
2018-03-15T12:38:31.348Z,51.00
2018-03-15T12:40:59.616Z,50.00
2018-03-15T12:43:28.200Z,49.10
2018-03-15T12:45:56.871Z,48.10
2018-03-15T12:48:25.288Z,48.20
2018-03-15T12:50:57.058Z,47.80
2018-03-15T12:53:26.635Z,47.80
2018-03-15T12:55:54.897Z,47.70
2018-03-15T12:58:23.244Z,47.30
2018-03-15T13:00:51.577Z,48.60
2018-03-15T13:03:20.616Z,47.60
2018-03-15T13:05:49.022Z,47.60
2018-03-15T13:08:17.278Z,47.90
2018-03-15T13:10:45.547Z,47.80
2018-03-15T13:13:13.954Z,49.00
2018-03-15T13:15:43.013Z,48.20
2018-03-15T13:18:11.258Z,47.40
2018-03-15T13:20:44.150Z,47.10
2018-03-15T13:23:15.290Z,47.10
2018-03-15T13:25:45.398Z,45.90
2018-03-15T13:28:13.659Z,45.90
2018-03-15T13:30:42.043Z,46.60
2018-03-15T13:33:10.383Z,46.40
2018-03-15T13:35:39.755Z,46.60
2018-03-15T13:38:08.050Z,47.00
2018-03-15T13:40:36.326Z,47.50
2018-03-15T13:43:04.603Z,47.80
2018-03-15T13:45:32.856Z,48.60
2018-03-15T13:48:01.174Z,49.00
2018-03-15T13:50:29.640Z,49.40
2018-03-15T13:52:57.898Z,49.90
2018-03-15T13:55:26.208Z,50.10
2018-03-15T13:57:54.485Z,50.70
2018-03-15T14:00:23.522Z,51.00
2018-03-15T14:02:52.634Z,52.10
2018-03-15T14:05:21.737Z,52.10
2018-03-15T14:07:50.000Z,52.20
2018-03-15T14:10:18.840Z,52.60
2018-03-15T14:12:47.659Z,53.30
2018-03-15T14:15:16.686Z,54.10
2018-03-15T14:17:45.051Z,54.10
2018-03-15T14:20:15.151Z,54.60
2018-03-15T14:22:44.333Z,55.40
2018-03-15T14:25:14.360Z,55.40
2018-03-15T14:27:43.412Z,56.40
2018-03-15T14:30:13.013Z,56.40
2018-03-15T14:32:42.859Z,57.00
2018-03-15T14:35:12.038Z,57.00
2018-03-15T14:37:41.664Z,57.30
2018-03-15T14:40:09.977Z,57.20
2018-03-15T14:42:39.062Z,57.40
2018-03-15T14:45:07.320Z,57.40
2018-03-15T14:47:35.642Z,57.30
2018-03-15T14:50:03.936Z,57.40
2018-03-15T14:52:32.225Z,57.40
2018-03-15T14:55:01.324Z,57.50
2018-03-15T14:57:29.624Z,57.60
2018-03-15T14:59:57.970Z,57.80
2018-03-15T15:02:26.252Z,57.90
2018-03-15T15:04:54.524Z,58.20
2018-03-15T15:07:23.580Z,58.40
2018-03-15T15:09:52.657Z,59.00
2018-03-15T15:12:21.701Z,58.90
2018-03-15T15:14:49.962Z,58.90
2018-03-15T15:17:18.243Z,59.10
2018-03-15T15:19:46.522Z,59.50
2018-03-15T15:22:14.883Z,59.70
2018-03-15T15:24:43.168Z,60.30
2018-03-15T15:27:11.554Z,60.60
2018-03-15T15:29:39.863Z,61.10
2018-03-15T15:32:08.236Z,61.40
2018-03-15T15:34:36.503Z,61.70
2018-03-15T15:37:05.566Z,62.90
2018-03-15T15:39:33.840Z,62.20
2018-03-15T15:42:02.098Z,62.50
2018-03-15T15:44:31.160Z,63.20
2018-03-15T15:46:59.480Z,63.10
2018-03-15T15:49:28.451Z,63.90
2018-03-15T15:51:57.489Z,66.20
2018-03-15T15:54:25.774Z,66.20
2018-03-15T15:56:54.039Z,67.10
2018-03-15T15:59:22.333Z,67.00
2018-03-15T16:01:50.597Z,68.20
2018-03-15T16:04:18.869Z,68.80
2018-03-15T16:06:47.152Z,69.90
2018-03-15T16:09:15.422Z,70.70
2018-03-15T16:11:43.697Z,71.00
2018-03-15T16:14:12.003Z,71.00
2018-03-15T16:16:40.323Z,70.60
2018-03-15T16:19:09.477Z,72.10
2018-03-15T16:21:37.808Z,72.20
2018-03-15T16:24:06.091Z,73.40
2018-03-15T16:26:34.409Z,73.10
2018-03-15T16:29:02.688Z,72.30
2018-03-15T16:31:30.964Z,72.60
2018-03-15T16:36:56.732Z,69.00
2018-03-15T16:39:24.996Z,70.30
2018-03-15T16:41:53.270Z,70.40
2018-03-15T16:44:21.540Z,69.90
2018-03-15T16:46:49.819Z,70.30
2018-03-15T16:49:18.184Z,69.70
2018-03-15T16:51:46.481Z,69.40
2018-03-15T16:54:14.778Z,69.60
2018-03-15T16:56:43.066Z,69.40
2018-03-15T16:59:12.104Z,69.90
2018-03-15T17:01:40.406Z,69.90
2018-03-15T17:04:08.761Z,69.40
2018-03-15T17:06:37.022Z,69.60
2018-03-15T17:09:05.313Z,70.60
2018-03-15T17:11:33.601Z,71.20
2018-03-15T17:14:01.883Z,70.00
2018-03-15T17:16:30.177Z,69.90
2018-03-15T17:18:59.217Z,70.50
2018-03-15T17:21:27.512Z,70.50
2018-03-15T17:23:55.789Z,71.40
2018-03-15T17:26:24.070Z,71.20
2018-03-15T17:28:52.363Z,71.60
2018-03-15T17:31:20.657Z,70.90
2018-03-15T17:33:48.962Z,71.70
2018-03-15T17:36:17.278Z,71.10
2018-03-15T17:38:45.549Z,71.40
2018-03-15T17:41:13.840Z,71.00
2018-03-15T17:43:42.096Z,71.20
2018-03-15T17:46:11.183Z,71.80
2018-03-15T17:48:39.515Z,71.40
2018-03-15T17:51:07.831Z,70.90
2018-03-15T17:53:36.087Z,71.30
2018-03-15T17:56:04.366Z,71.00
2018-03-15T17:58:32.636Z,71.10
2018-03-15T18:01:00.916Z,70.90
2018-03-15T18:03:29.213Z,71.40
2018-03-15T18:05:57.504Z,71.70
2018-03-15T18:08:25.794Z,71.60
2018-03-15T18:10:54.048Z,71.90
2018-03-15T18:13:22.324Z,72.60
2018-03-15T18:15:50.693Z,72.10
2018-03-15T18:18:18.964Z,71.80
2018-03-15T18:20:47.296Z,72.40
2018-03-15T18:23:15.560Z,72.30
2018-03-15T18:25:43.841Z,72.20
2018-03-15T18:28:12.096Z,72.40
2018-03-15T18:30:40.472Z,73.00
2018-03-15T18:33:08.857Z,72.60
2018-03-15T18:35:37.125Z,71.70
2018-03-15T18:38:05.412Z,72.40
2018-03-15T18:40:33.694Z,72.50
2018-03-15T18:43:01.943Z,73.00
2018-03-15T18:45:30.210Z,72.40
2018-03-15T18:47:58.542Z,72.20
2018-03-15T18:50:26.892Z,71.50
2018-03-15T18:52:55.192Z,70.90
2018-03-15T18:55:25.289Z,71.40
2018-03-15T18:57:53.651Z,71.10
2018-03-15T19:00:21.935Z,71.60
2018-03-15T19:02:50.256Z,72.00
2018-03-15T19:05:18.529Z,72.00
2018-03-15T19:07:47.584Z,71.90
2018-03-15T19:10:15.854Z,71.90
2018-03-15T19:12:44.120Z,71.80
2018-03-15T19:15:12.429Z,72.30
2018-03-15T19:17:40.781Z,71.70
2018-03-15T19:20:09.142Z,71.60
2018-03-15T19:22:38.191Z,71.50
2018-03-15T19:25:06.418Z,71.50
2018-03-15T19:27:34.708Z,71.50
2018-03-15T19:30:03.006Z,72.20
2018-03-15T19:32:31.372Z,72.00
2018-03-15T19:34:59.668Z,72.00
2018-03-15T19:37:28.185Z,72.00
2018-03-15T19:39:56.528Z,72.70
2018-03-15T19:42:24.804Z,72.60
2018-03-15T19:44:53.087Z,72.10
2018-03-15T19:47:21.957Z,72.90
2018-03-15T19:49:50.398Z,71.00
2018-03-15T19:52:18.733Z,72.20
2018-03-15T19:54:47.474Z,71.40
2018-03-15T19:57:15.812Z,71.40
2018-03-15T19:59:44.869Z,71.60
2018-03-15T20:02:13.401Z,71.60
2018-03-15T20:04:41.671Z,71.10
2018-03-15T20:07:10.169Z,70.80
2018-03-15T20:09:38.394Z,69.60
2018-03-15T20:12:06.757Z,70.10
2018-03-15T20:14:35.041Z,69.60
2018-03-15T20:17:03.310Z,70.30
2018-03-15T20:19:31.576Z,70.70
2018-03-15T20:22:00.074Z,71.20
2018-03-15T20:24:30.339Z,71.70
2018-03-15T20:26:59.422Z,72.20
2018-03-15T20:29:27.753Z,72.10
2018-03-15T20:31:56.039Z,72.80
2018-03-15T20:34:24.334Z,73.20
2018-03-15T20:36:52.640Z,73.20
2018-03-15T20:39:27.306Z,73.60
2018-03-15T20:41:55.589Z,73.60
2018-03-15T20:44:23.858Z,73.60
2018-03-15T20:46:58.520Z,73.60
2018-03-15T20:49:26.795Z,74.00
2018-03-15T20:51:55.086Z,74.10
2018-03-15T20:54:23.699Z,73.80
2018-03-15T20:56:51.984Z,74.00
2018-03-15T20:59:20.282Z,74.10
2018-03-15T21:01:48.560Z,74.50
2018-03-15T21:04:16.831Z,74.30
2018-03-15T21:06:45.153Z,74.80
2018-03-15T21:09:13.489Z,75.00
2018-03-15T21:11:41.731Z,75.40
2018-03-15T21:14:10.021Z,75.10
2018-03-15T21:16:38.278Z,75.20
2018-03-15T21:19:06.595Z,75.50
2018-03-15T21:21:34.905Z,75.30
2018-03-15T21:24:03.189Z,75.30
2018-03-15T21:26:31.469Z,75.50
2018-03-15T21:28:59.731Z,75.50
2018-03-15T21:31:28.009Z,75.70
2018-03-15T21:33:56.290Z,76.10
2018-03-15T21:36:24.556Z,75.80
2018-03-15T21:38:52.832Z,75.80
2018-03-15T21:41:22.092Z,75.80
2018-03-15T21:43:50.373Z,75.50
2018-03-15T21:46:18.646Z,75.60
2018-03-15T21:48:46.936Z,75.60
2018-03-15T21:51:15.219Z,75.50
2018-03-15T21:53:43.531Z,75.40
2018-03-15T21:56:11.812Z,75.10
2018-03-15T21:58:40.851Z,75.10
2018-03-15T22:01:09.127Z,75.00
2018-03-15T22:03:37.412Z,75.00
2018-03-15T22:06:05.718Z,75.40
2018-03-15T22:08:34.002Z,75.80
2018-03-15T22:11:02.277Z,75.50
2018-03-15T22:13:30.564Z,76.10
2018-03-15T22:15:59.618Z,75.70
2018-03-15T22:18:27.886Z,75.60
2018-03-15T22:20:56.212Z,76.10
2018-03-15T22:23:25.317Z,76.20
2018-03-15T22:25:53.590Z,76.20
2018-03-15T22:28:22.661Z,76.00
2018-03-15T22:30:50.916Z,75.90
2018-03-15T22:33:19.195Z,75.80
2018-03-15T22:35:47.500Z,75.80
2018-03-15T22:38:15.799Z,76.00
2018-03-15T22:40:44.081Z,76.70
2018-03-15T22:43:12.351Z,76.10
2018-03-15T22:45:40.640Z,76.20
2018-03-15T22:48:08.919Z,76.10
2018-03-15T22:50:37.205Z,76.10
2018-03-15T22:53:05.474Z,76.30
2018-03-15T22:55:33.727Z,76.20
2018-03-15T22:58:02.770Z,76.20
2018-03-15T23:00:31.064Z,76.30
2018-03-15T23:02:59.401Z,76.20
2018-03-15T23:05:27.702Z,76.30
2018-03-15T23:07:56.006Z,76.00
2018-03-15T23:10:24.299Z,76.40
2018-03-15T23:12:52.555Z,77.70
2018-03-15T23:15:20.831Z,76.90
2018-03-15T23:17:49.138Z,77.00
2018-03-15T23:20:18.202Z,77.60
2018-03-15T23:22:46.524Z,77.60
2018-03-15T23:25:14.818Z,77.50
2018-03-15T23:27:43.092Z,77.50
2018-03-15T23:30:11.376Z,77.80
2018-03-15T23:32:39.642Z,78.30
2018-03-15T23:35:07.915Z,78.70
2018-03-15T23:37:36.256Z,78.90
2018-03-15T23:40:04.531Z,79.30
2018-03-15T23:42:32.820Z,80.20
2018-03-15T23:45:01.084Z,80.10
2018-03-15T23:47:30.127Z,79.90
2018-03-15T23:49:58.396Z,79.80
2018-03-15T23:52:26.677Z,80.10
2018-03-15T23:54:54.930Z,80.20
2018-03-15T23:57:23.267Z,80.10
2018-03-15T23:59:51.550Z,80.10
